Aérodrome :
LOGIN :

S'inscrire | Disclaimer

   EN    FR    IT 

 










Légende :    VFR   VFR Marginal   IFR   IFR Intensif   IFR Très Intensif
Visi : 
Plafond : 
>= 8 km
>= 3000ft
5 à 8 km
1000 à 3000 ft
1500m à 5 km
500 à 1000 ft
800 à 1500m
200 à 500 ft
< 800m
< 200 ft
Symboles :   Orages  Brouillard  Fortes neiges  Fortes précipitations  Vent > 20 kt
SIGMETs :   Divers  Orages  Givrage  Turbulence  Onde Orograph.  Cendres Volcan.







- Altitude de l'aérodrome : 13 ft
- Code IATA : LYX
- Voir les cartes d'approche


EGMD - Lydd

DERNIER METAR :
  • 160450Z AUTO 20004KT 4200 BR NCD 04/04 Q1023

METARs EXPIRÉS :
  • 160420Z AUTO 20007KT 3800 BR NCD 04/04 Q1023
  • 160350Z AUTO VRB03KT 0300 FG SCT004/// SCT007/// 03/03 Q1023
  • 160320Z AUTO 22003KT 0150 FG SCT007/// 04/03 Q1024
  • 160250Z AUTO 23005KT 6000 NCD 06/06 Q1024
  • 160220Z AUTO 18006KT 4100 BR FEW007/// 05/05 Q1024

TAF TAF EGMD
Valide du 16 à 03h jusqu'au 16 à 12h UTC


160155Z 1603/1612 19005KT 6000 FEW045
TEMPO 1603/1612 0300 FZFG VV///
BECMG 1608/1611 4000 BR BKN005
TEMPO 1610/1612 -DZ BKN003
ATIS : +44 1797 322 422
Pas de NOTAMs connus pour ce terrain.
1 SIGMET publié pour la FIR London (EGTT) :
 
Onde orographique forte
EGTT SIGMET 01 VALID 160300/160600 EGRR
EGTT LONDON FIR SEV MTW FCST WI N5328 E00011 - N5228 W00406 - N5500 W00435 - N5500 E00008 - N5328 E00011 FL030/200 STNR WKN=



MET'MAP, la Météo Aéronautique d'un coup d'oeil ! - Copyright ORBIFLY Décembre 2007 - Disclaimer

ORBIFLY MET'MAP TEAM :

Programmation & Développement : Alexandra Zaïnal
Conception & Développement : Baudouin d'Aumeries
Co-Programmation & Développement : Marc-Olivier Méhu
Soutien technique & logistique : Manuel Goepfert

Contact : metmap@orbifly.com




SOURCES & CREDITS :

   NOAA